Terminal Aerodrome Forecast
Issued by NWS Newport/Morehead City, NC

Home | Current Version | Previous Version | Text Only | Print | Product List | Glossary On
Versions: 1 2 3 4 5 6 7 8 9 10 11 12
086
FTUS42 KMHX 171153 CCA
TAFEWN
TAF COR
KEWN 171153Z 1712/1812 00000KT P6SM SCT150
     FM171800 03007KT P6SM VCSH OVC090
     FM172100 01009KT 5SM -RASN SCT005 OVC050
     FM172300 01010G20KT 2SM -SN OVC005
     FM180400 35010G21KT P6SM -SN OVC008
     FM180500 35010G21KT P6SM SCT010=

USA.gov is the U.S. government's official web portal to all federal, state and local government web resources and services.